Latest Weather Observations for Edithburgh

IDS60801

Issued at 12:32 pm CDT Friday 27 March 2015 (issued every 30 minutes, with the page automatically refreshed every 10 minutes)

About weather observations | Map of weather stations | Latest weather observations for SA | Other Formats
Station Details ID: 022046 Name: EDITHBURGH Lat: -35.11 Lon: 137.74 Height: 6.0 m
Data from the previous 72 hours. | See also: Recent months at Edithburgh
Date/Time
CDT
Temp
°C
App
Temp
°C
Dew
Point
Rel
Hum
%
Delta-T
°C
Wind Press
QNH
hPa
Press
MSL
hPa
Rain
since 9 am
mm
Dir
 
Spd
km/h
Gust
km/h
Spd
kts
Gust
kts
27/12:30pm 17.2 14.6 9.3 59 4.1 S 13 20 7 11 1029.3 1029.2 0.0
27/12:00pm 17.5 14.6 8.0 53 4.8 S 13 19 7 10 1029.5 1029.4 0.0
27/11:30am 16.1 14.4 9.9 66 3.2 SSW 9 15 5 8 1029.8 1029.7 0.0
27/11:00am 15.3 12.6 8.8 65 3.3 SSW 13 22 7 12 1030.1 1030.0 0.0
27/10:30am 16.8 14.1 9.0 60 4.0 SSW 13 20 7 11 1029.9 1029.8 0.0
27/10:00am 16.6 14.2 8.7 59 4.0 SW 11 17 6 9 1030.0 1029.9 0.0
27/09:30am 16.1 13.6 8.4 60 3.9 SSW 11 17 6 9 1029.9 1029.8 0.0
27/09:00am 15.6 13.4 7.7 59 3.9 SSW 9 13 5 7 1029.7 1029.6 0.0
27/08:30am 14.8 11.8 7.9 63 3.4 SSW 13 17 7 9 1029.6 1029.5 0.0
27/08:00am 14.6 11.0 8.4 66 3.1 S 17 26 9 14 1029.3 1029.2 0.0
27/07:30am 14.3 11.0 9.6 73 2.4 SSW 17 24 9 13 1028.8 1028.7 0.0
27/07:00am 14.2 10.7 8.8 70 2.7 SW 17 24 9 13 1028.6 1028.5 0.0
27/06:30am 14.0 10.9 9.0 72 2.5 SW 15 24 8 13 1028.3 1028.2 0.0
27/06:00am 13.8 10.4 9.3 74 2.3 SW 17 20 9 11 1028.0 1027.9 0.0
27/05:30am 13.8 10.1 10.3 79 1.8 SSW 20 28 11 15 1027.9 1027.8 0.0
27/05:00am 14.7 11.3 7.8 63 3.4 SW 15 19 8 10 1027.8 1027.7 0.0
27/04:30am 14.7 11.3 7.8 63 3.4 SSW 15 19 8 10 1027.8 1027.7 0.0
27/04:00am 14.7 11.9 8.7 67 3.0 SW 13 20 7 11 1027.9 1027.8 0.0
27/03:30am 14.7 11.0 7.8 63 3.4 SW 17 24 9 13 1028.0 1027.9 0.0
27/03:00am 14.8 10.9 7.2 60 3.7 SW 17 26 9 14 1028.1 1028.0 0.0
27/02:30am 14.8 10.7 7.7 62 3.5 SSW 19 22 10 12 1028.3 1028.2 0.0
27/02:00am 14.8 10.5 7.2 60 3.7 S 19 28 10 15 1028.3 1028.2 0.0
27/01:30am 15.0 10.4 6.7 57 4.0 SSW 20 28 11 15 1028.3 1028.2 0.0
27/01:00am 14.9 11.0 6.9 58 3.9 SSW 17 22 9 12 1028.5 1028.4 0.0
27/12:30am 14.6 11.4 6.7 59 3.8 WSW 13 20 7 11 1028.6 1028.5 0.0
27/12:00am 14.8 10.6 8.4 65 3.2 SW 20 30 11 16 1028.6 1028.5 0.0
 
Date/Time
CDT
Temp
°C
App
Temp
°C
Dew
Point
Rel
Hum
%
Delta-T
°C
Wind Press
QNH
hPa
Press
MSL
hPa
Rain
since 9 am
mm
Dir
 
Spd
km/h
Gust
km/h
Spd
kts
Gust
kts
26/11:30pm 15.0 11.0 6.5 57 4.1 SW 17 26 9 14 1028.6 1028.5 0.0
26/11:00pm 15.0 10.7 7.0 59 3.9 SSW 19 24 10 13 1028.7 1028.6 0.0
26/10:30pm 15.0 10.9 6.2 55 4.2 SSW 17 24 9 13 1028.9 1028.8 0.0
26/10:00pm 15.0 11.0 6.7 57 4.0 SW 17 20 9 11 1028.9 1028.8 0.0
26/09:30pm 15.1 10.3 5.6 53 4.5 SW 20 26 11 14 1028.7 1028.6 0.0
26/09:00pm 15.2 9.9 5.2 51 4.7 SSW 22 28 12 15 1028.6 1028.5 0.0
26/08:30pm 15.4 11.0 4.9 49 4.9 SSW 17 24 9 13 1028.4 1028.3 0.0
26/08:00pm 15.4 10.0 4.6 48 5.0 SSW 22 32 12 17 1028.3 1028.2 0.0
26/07:30pm 15.4 9.5 6.0 53 4.5 SSW 26 33 14 18 1028.1 1028.0 0.0
26/07:00pm 16.1 11.3 4.5 46 5.4 SW 19 24 10 13 1027.8 1027.7 0.0
26/06:30pm 16.3 11.2 3.3 42 5.9 SW 19 28 10 15 1027.5 1027.4 0.0
26/06:00pm 16.6 11.2 4.7 45 5.6 SSW 22 32 12 17 1027.3 1027.2 0.0
26/05:30pm 16.8 11.8 3.8 42 6.0 WSW 19 33 10 18 1026.9 1026.8 0.0
26/05:00pm 18.4 12.1 1.6 32 7.6 WSW 24 33 13 18 1026.7 1026.6 0.0
26/04:30pm 18.0 12.3 2.6 35 7.0 SW 22 32 12 17 1026.7 1026.6 0.0
26/04:00pm 18.1 12.1 3.1 36 6.9 SW 24 39 13 21 1026.5 1026.4 0.0
26/03:30pm 17.8 12.1 2.9 37 6.8 SW 22 30 12 16 1026.7 1026.6 0.0
26/03:00pm 17.5 11.5 3.1 38 6.6 WSW 24 33 13 18 1026.6 1026.5 0.0
26/02:30pm 18.2 12.5 2.9 36 7.0 SW 22 35 12 19 1026.8 1026.7 0.0
26/02:00pm 17.8 11.9 3.9 39 6.5 SW 24 33 13 18 1026.9 1026.8 0.0
26/01:30pm 17.6 12.2 4.4 41 6.2 SW 22 33 12 18 1027.3 1027.2 0.0
26/01:00pm 18.1 12.1 3.1 36 6.9 SW 24 37 13 20 1027.2 1027.1 0.0
26/12:30pm 18.2 12.1 2.6 35 7.1 SW 24 37 13 20 1027.1 1027.0 0.0
26/12:00pm 17.4 10.2 2.9 38 6.6 SW 30 37 16 20 1027.0 1026.9 0.0
26/11:30am 17.2 11.0 4.1 41 6.1 SW 26 35 14 19 1027.2 1027.1 0.0
26/11:00am 16.5 9.8 3.7 42 5.9 SW 28 39 15 21 1027.1 1027.0 0.0
26/10:30am 16.6 10.3 3.5 41 6.0 SW 26 35 14 19 1026.9 1026.8 0.0
26/10:00am 15.9 9.2 3.7 44 5.6 SW 28 41 15 22 1026.5 1026.4 0.0
26/09:30am 15.6 8.8 3.2 43 5.6 SW 28 39 15 21 1026.1 1026.0 0.0
26/09:00am 15.2 8.4 2.9 43 5.5 SW 28 37 15 20 1025.7 1025.6 0.4
26/08:30am 14.1 7.1 4.0 50 4.6 SW 30 37 16 20 1025.2 1025.1 0.4
26/08:00am 13.5 7.1 3.4 50 4.5 SW 26 41 14 22 1024.9 1024.8 0.4
26/07:30am 13.3 7.0 3.7 52 4.3 SW 26 37 14 20 1024.5 1024.4 0.4
26/07:00am 13.5 5.7 2.8 48 4.7 SW 33 46 18 25 1024.1 1024.0 0.4
26/06:30am 13.6 5.5 -0.2 38 5.7 SW 32 44 17 24 1023.6 1023.5 0.4
26/06:00am 13.3 6.3 1.9 46 4.9 SW 28 37 15 20 1023.4 1023.3 0.4
26/05:30am 13.3 5.5 1.9 46 4.9 SW 32 43 17 23 1023.2 1023.1 0.4
26/05:00am 13.3 6.6 3.4 51 4.4 SW 28 37 15 20 1022.8 1022.7 0.4
26/04:30am 13.2 5.7 3.6 52 4.3 SW 32 43 17 23 1022.8 1022.7 0.4
26/04:00am 13.4 6.6 3.0 49 4.6 SW 28 43 15 23 1022.7 1022.6 0.4
26/03:30am 13.3 6.6 3.4 51 4.4 SW 28 39 15 21 1022.8 1022.7 0.4
26/03:00am 13.0 6.7 3.6 53 4.2 SW 26 37 14 20 1022.9 1022.8 0.4
26/02:30am 13.6 6.3 2.7 47 4.8 SW 30 39 16 21 1022.8 1022.7 0.4
26/02:00am 13.4 7.3 2.7 48 4.7 SW 24 37 13 20 1022.6 1022.5 0.4
26/01:30am 13.7 6.7 4.0 52 4.4 SW 30 41 16 22 1022.6 1022.5 0.4
26/01:00am 13.7 7.7 3.1 48 4.7 SW 24 37 13 20 1022.3 1022.2 0.4
26/12:30am 13.8 6.1 2.4 46 5.0 SW 32 43 17 23 1022.2 1022.1 0.4
26/12:00am 13.9 6.9 2.2 45 5.1 SW 28 43 15 23 1022.3 1022.2 0.4
 
Date/Time
CDT
Temp
°C
App
Temp
°C
Dew
Point
Rel
Hum
%
Delta-T
°C
Wind Press
QNH
hPa
Press
MSL
hPa
Rain
since 9 am
mm
Dir
 
Spd
km/h
Gust
km/h
Spd
kts
Gust
kts
25/11:30pm 13.5 7.8 3.1 49 4.6 SW 22 32 12 17 1022.2 1022.1 0.4
25/11:00pm 13.6 7.9 3.0 48 4.7 SW 22 32 12 17 1022.1 1022.0 0.4
25/10:30pm 13.6 6.6 3.9 52 4.4 SW 30 43 16 23 1022.0 1021.9 0.4
25/10:00pm 13.9 6.5 4.8 54 4.2 SW 33 44 18 24 1021.5 1021.4 0.4
25/09:30pm 14.2 7.0 3.0 47 5.0 SW 30 43 16 23 1021.2 1021.1 0.4
25/09:00pm 14.4 7.1 4.7 52 4.5 SW 32 48 17 26 1020.9 1020.8 0.4
25/08:30pm 14.5 7.3 2.8 45 5.2 SW 30 41 16 22 1020.3 1020.2 0.4
25/08:00pm 14.4 7.9 2.7 45 5.2 WSW 26 39 14 21 1019.9 1019.8 0.4
25/07:30pm 14.5 7.2 2.5 44 5.3 WSW 30 44 16 24 1019.2 1019.2 0.4
25/07:22pm 14.6 8.1 4.7 51 4.6 WSW 28 46 15 25 1019.1 1019.1 0.4
25/07:00pm 14.9 9.1 6.4 57 4.1 WSW 26 37 14 20 1018.8 1018.8 0.4
25/06:40pm 14.6 9.0 8.7 67 3.0 SW 28 48 15 26 1018.6 1018.6 0.4
25/06:30pm 14.6 8.1 8.0 64 3.3 SW 32 46 17 25 1018.5 1018.5 0.4
25/06:07pm 13.5 7.4 9.6 77 2.0 SW 32 52 17 28 1018.4 1018.4 0.4
25/06:00pm 13.4 6.4 9.9 79 1.8 SW 37 54 20 29 1018.3 1018.3 0.4
25/05:30pm 13.9 8.6 12.4 91 0.8 WSW 32 48 17 26 1017.8 1017.8 0.4
25/05:14pm 14.5 7.9 12.7 89 1.0 SW 39 57 21 31 1017.4 1017.4 0.2
25/05:00pm 14.1 7.9 12.6 91 0.8 WSW 37 56 20 30 1017.1 1017.1 0.2
25/04:56pm 14.8 8.5 13.4 91 0.8 WSW 39 59 21 32 1016.9 1016.9 0.2
25/04:44pm 15.9 9.1 13.2 84 1.5 W 41 56 22 30 1016.4 1016.4 0.0
25/04:30pm 17.4 8.6 12.1 71 2.9 WNW 50 61 27 33 1016.2 1016.2 0.0
25/04:00pm 20.0 11.8 6.7 42 6.7 WNW 39 50 21 27 1015.7 1015.7 0.0
25/03:30pm 20.4 11.5 6.7 41 6.9 NW 43 56 23 30 1015.4 1015.4 0.0
25/03:00pm 20.8 12.6 6.5 39 7.2 NW 39 50 21 27 1015.9 1015.9 0.0
25/02:30pm 21.2 13.2 5.7 36 7.7 NW 37 54 20 29 1016.3 1016.3 0.0
25/02:00pm 20.0 12.0 5.9 39 7.0 NW 37 54 20 29 1017.1 1017.1 0.0
25/01:40pm 20.0 11.5 5.0 37 7.3 NW 39 59 21 32 1017.1 1017.1 0.0
25/01:30pm 19.8 11.6 4.7 37 7.3 NW 37 54 20 29 1017.4 1017.4 0.0
25/01:24pm 21.2 13.5 5.2 35 7.9 NW 35 54 19 29 1017.5 1017.5 0.0
25/01:00pm 19.8 11.3 5.0 37 7.2 NW 39 50 21 27 1017.8 1017.8 0.0
25/12:30pm 20.3 14.4 3.7 33 7.9 WNW 24 33 13 18 1017.9 1017.9 0.0
25/12:00pm 18.9 12.7 4.4 38 6.9 WNW 26 37 14 20 1018.6 1018.6 0.0
25/11:30am 17.9 11.4 4.9 42 6.2 WNW 28 37 15 20 1018.8 1018.8 0.0
25/11:00am 18.2 12.2 3.6 38 6.8 NW 24 37 13 20 1018.9 1018.9 0.0
25/10:30am 17.8 12.9 5.1 43 6.1 NNW 20 28 11 15 1019.4 1019.4 0.0
25/10:00am 17.9 13.4 4.1 40 6.5 NNW 17 20 9 11 1019.9 1019.8 0.0
25/09:30am 15.4 11.9 3.6 45 5.4 NW 11 13 6 7 1019.7 1019.7 0.0
25/09:00am 14.3 11.8 4.8 53 4.4 NNW 7 9 4 5 1020.0 1019.9 0.0
25/08:30am 12.4 10.1 5.5 63 3.2 NNW 7 9 4 5 1019.7 1019.7 0.0
25/08:00am 10.7 8.0 5.7 71 2.3 NW 9 11 5 6 1019.9 1019.8 0.0
25/07:30am 9.3 6.5 5.1 75 1.9 NNW 9 9 5 5 1019.6 1019.6 0.0
25/07:00am 9.3 6.0 4.6 72 2.1 NNW 11 11 6 6 1019.4 1019.4 0.0
25/06:30am 10.0 7.3 5.4 73 2.1 NW 9 11 5 6 1019.4 1019.4 0.0
25/06:00am 10.5 7.8 5.5 71 2.3 NW 9 11 5 6 1019.3 1019.3 0.0
25/05:30am 11.7 9.0 5.7 66 2.8 WNW 9 9 5 5 1019.4 1019.4 0.0
25/05:00am 11.6 9.4 5.3 65 2.9 WSW 6 7 3 4 1019.6 1019.6 0.0
25/04:30am 12.7 9.8 4.8 58 3.6 W 9 11 5 6 1020.0 1019.9 0.0
25/04:00am 14.2 11.8 5.2 54 4.2 W 7 9 4 5 1020.1 1020.0 0.0
25/03:30am 14.6 12.4 5.2 53 4.4 WNW 6 7 3 4 1020.1 1020.0 0.0
25/03:00am 14.6 12.8 5.2 53 4.4 WNW 4 4 2 2 1020.7 1020.6 0.0
25/02:30am 15.0 12.8 5.5 53 4.5 W 6 7 3 4 1021.0 1020.9 0.0
25/02:00am 15.0 13.2 5.2 52 4.6 W 4 6 2 3 1021.1 1021.0 0.0
25/01:30am 15.3 14.4 5.9 53 4.5 CALM 0 0 0 0 1021.2 1021.1 0.0
25/01:00am 15.2 13.3 5.0 50 4.8 ESE 4 6 2 3 1021.3 1021.2 0.0
25/12:30am 15.5 13.6 4.8 49 5.0 ESE 4 6 2 3 1021.4 1021.3 0.0
25/12:00am 15.5 13.1 4.5 48 5.1 ESE 6 9 3 5 1021.7 1021.6 0.0
 
Date/Time
CDT
Temp
°C
App
Temp
°C
Dew
Point
Rel
Hum
%
Delta-T
°C
Wind Press
QNH
hPa
Press
MSL
hPa
Rain
since 9 am
mm
Dir
 
Spd
km/h
Gust
km/h
Spd
kts
Gust
kts
24/11:30pm 15.6 13.1 4.7 48 5.1 SE 7 11 4 6 1021.8 1021.7 0.0
24/11:00pm 15.8 13.4 5.2 49 5.0 SE 7 13 4 7 1022.3 1022.2 0.0
24/10:30pm 16.0 13.5 4.7 47 5.3 SE 7 9 4 5 1022.5 1022.4 0.0
24/10:00pm 16.0 13.1 4.7 47 5.3 SE 9 15 5 8 1022.5 1022.4 0.0
24/09:30pm 16.2 13.4 5.0 47 5.3 SE 9 13 5 7 1022.8 1022.7 0.0
24/09:00pm 16.1 12.8 4.8 47 5.3 SSE 11 17 6 9 1022.5 1022.4 0.0
24/08:30pm 16.2 13.1 5.5 49 5.1 SSE 11 17 6 9 1022.1 1022.0 0.0
24/08:00pm 16.2 12.6 5.0 47 5.3 SE 13 19 7 10 1022.0 1021.9 0.0
24/07:30pm 16.3 13.2 5.4 48 5.2 SSE 11 17 6 9 1022.0 1021.9 0.0
24/07:00pm 16.4 12.9 5.5 48 5.2 SSE 13 17 7 9 1021.9 1021.8 0.0
24/06:30pm 16.9 12.6 5.1 45 5.6 SSE 17 22 9 12 1021.5 1021.4 0.0
24/06:00pm 17.5 13.8 4.3 41 6.2 SSE 13 17 7 9 1021.5 1021.4 0.0
24/05:30pm 17.5 13.8 4.3 41 6.2 S 13 19 7 10 1021.6 1021.5 0.0
24/05:00pm 17.6 13.5 4.5 42 6.2 SSE 15 20 8 11 1021.7 1021.6 0.0
24/04:30pm 18.2 13.8 4.5 40 6.5 SSE 17 20 9 11 1021.7 1021.6 0.0
24/04:00pm 18.2 13.7 4.2 39 6.6 SSE 17 24 9 13 1021.5 1021.4 0.0
24/03:30pm 18.7 13.9 5.5 42 6.4 SSE 20 32 11 17 1021.7 1021.6 0.0
24/03:00pm 18.4 13.3 3.9 38 6.8 SSE 20 28 11 15 1021.9 1021.8 0.0
24/02:30pm 18.1 13.5 5.8 44 6.0 SSE 19 26 10 14 1022.0 1021.9 0.0
24/02:00pm 16.8 13.7 7.4 54 4.7 SSE 13 22 7 12 1022.6 1022.5 0.0
24/01:30pm 18.3 13.5 7.4 49 5.5 S 22 30 12 16 1022.9 1022.8 0.0
24/01:00pm 16.8 11.3 7.6 54 4.6 SE 26 33 14 18 1023.1 1023.0 0.0

Other Formats:

Comma delimited format used in spreadsheet applications
http://www.bom.gov.au/fwo/IDS60801/IDS60801.94809.axf

JavaScript Object Notation format (JSON) in row-major order
http://www.bom.gov.au/fwo/IDS60801/IDS60801.94809.json